MAS139 WMKK-YPAD
Flight info
| Callsign | MAS139 |
|---|---|
| Flight time | N/A |
| Altitude | 35000 |
| Route | MITOS1D MITOS M630 BOBAG P501 ANITO B470 PKP L511 MIMIX L895 SAPDA/N0488F370 A585 PD/N0488F390 A585 CDU V621 ATNAR |
| Aircraft | A359/H-SDE2E3GHIJ3J4J5LM1ORWXY/LB1D1 |
Departure
| Time | N/A |
|---|---|
| Airport | Kuala Lumpur International Airport (WMKK) |
Arrival
| Time | 2025-09-09 11:24 |
|---|---|
| Airport | Adelaide International Airport (YPAD) |
| Time | Latitude | Longitude | Altitude | Speed | Heading |
|---|---|---|---|---|---|
| 2025-09-09 09:51 | -26.75522 | 126.17362 | 39220 ft | 569 kts | 137° |
| 2025-09-09 09:53 | -26.93811 | 126.40919 | 39228 ft | 585 kts | 136° |
| 2025-09-09 09:54 | -27.12945 | 126.65718 | 39230 ft | 608 kts | 136° |
| 2025-09-09 09:57 | -27.37830 | 126.98189 | 39227 ft | 611 kts | 135° |
| 2025-09-09 09:59 | -27.59932 | 127.27264 | 39227 ft | 613 kts | 135° |
| 2025-09-09 10:01 | -27.84861 | 127.60290 | 39221 ft | 615 kts | 134° |
| 2025-09-09 10:03 | -28.04262 | 127.86173 | 39223 ft | 617 kts | 134° |
| 2025-09-09 10:05 | -28.29241 | 128.19724 | 39218 ft | 620 kts | 134° |
| 2025-09-09 10:07 | -28.48685 | 128.46044 | 39211 ft | 622 kts | 133° |
| 2025-09-09 10:09 | -28.70843 | 128.76227 | 39201 ft | 623 kts | 133° |
| 2025-09-09 10:11 | -28.92988 | 129.06607 | 39195 ft | 623 kts | 133° |
| 2025-09-09 10:13 | -29.14144 | 129.35794 | 39191 ft | 622 kts | 133° |
| 2025-09-09 10:15 | -29.36117 | 129.66334 | 39186 ft | 620 kts | 133° |
| 2025-09-09 10:17 | -29.57964 | 129.96928 | 39184 ft | 619 kts | 133° |
| 2025-09-09 10:18 | -29.76955 | 130.23712 | 39181 ft | 617 kts | 133° |
| 2025-09-09 10:21 | -30.01276 | 130.58272 | 39173 ft | 618 kts | 133° |
| 2025-09-09 10:23 | -30.22813 | 130.89128 | 39170 ft | 616 kts | 133° |
| 2025-09-09 10:25 | -30.43338 | 131.18859 | 39159 ft | 585 kts | 134° |
| 2025-09-09 10:27 | -30.63643 | 131.48383 | 39155 ft | 584 kts | 134° |
| 2025-09-09 10:29 | -30.83789 | 131.77903 | 39149 ft | 583 kts | 134° |
| 2025-09-09 10:31 | -31.03855 | 132.07604 | 39145 ft | 583 kts | 133° |
| 2025-09-09 10:33 | -31.23843 | 132.37421 | 39134 ft | 583 kts | 133° |
| 2025-09-09 10:35 | -31.43778 | 132.67392 | 39127 ft | 584 kts | 132° |
| 2025-09-09 10:37 | -31.63678 | 132.97545 | 39127 ft | 585 kts | 132° |
| 2025-09-09 10:38 | -31.81052 | 133.24059 | 39120 ft | 585 kts | 131° |
| 2025-09-09 10:41 | -32.03302 | 133.58294 | 39112 ft | 584 kts | 131° |
| 2025-09-09 10:42 | -32.20829 | 133.84593 | 39110 ft | 580 kts | 134° |
| 2025-09-09 10:45 | -32.43917 | 134.17663 | 39101 ft | 578 kts | 133° |
| 2025-09-09 10:46 | -32.61705 | 134.43445 | 39092 ft | 577 kts | 132° |
| 2025-09-09 10:49 | -32.84459 | 134.76697 | 39083 ft | 576 kts | 132° |
| 2025-09-09 10:50 | -33.02011 | 135.02546 | 39079 ft | 573 kts | 131° |
| 2025-09-09 10:53 | -33.24491 | 135.35851 | 39071 ft | 572 kts | 131° |
| 2025-09-09 10:54 | -33.41911 | 135.61908 | 39066 ft | 574 kts | 131° |
| 2025-09-09 10:57 | -33.63438 | 135.94391 | 39049 ft | 575 kts | 130° |
| 2025-09-09 10:58 | -33.80653 | 136.20581 | 38983 ft | 569 kts | 130° |
| 2025-09-09 11:01 | -34.04680 | 136.57446 | 33105 ft | 551 kts | 129° |
| 2025-09-09 11:02 | -34.18520 | 136.78854 | 29288 ft | 512 kts | 128° |
| 2025-09-09 11:04 | -34.32825 | 137.01148 | 24510 ft | 465 kts | 130° |
| 2025-09-09 11:05 | -34.36832 | 137.07427 | 23419 ft | 472 kts | 131° |
| 2025-09-09 11:05 | -34.40836 | 137.13680 | 22176 ft | 468 kts | 131° |
| 2025-09-09 11:06 | -34.44795 | 137.19876 | 20998 ft | 462 kts | 130° |
| 2025-09-09 11:06 | -34.46752 | 137.22948 | 20433 ft | 459 kts | 130° |
| 2025-09-09 11:06 | -34.50613 | 137.29019 | 19396 ft | 450 kts | 130° |
| 2025-09-09 11:07 | -34.54369 | 137.34938 | 18424 ft | 429 kts | 130° |
| 2025-09-09 11:08 | -34.61383 | 137.46008 | 16345 ft | 410 kts | 130° |
| 2025-09-09 11:08 | -34.63114 | 137.48744 | 15869 ft | 406 kts | 130° |
| 2025-09-09 11:09 | -34.66515 | 137.54131 | 14920 ft | 398 kts | 130° |
| 2025-09-09 11:09 | -34.69851 | 137.59419 | 14003 ft | 390 kts | 129° |
| 2025-09-09 11:10 | -34.73041 | 137.64646 | 13021 ft | 375 kts | 122° |
| 2025-09-09 11:10 | -34.74781 | 137.70342 | 12127 ft | 345 kts | 107° |
| 2025-09-09 11:11 | -34.76123 | 137.75867 | 11365 ft | 338 kts | 107° |
| 2025-09-09 11:11 | -34.77450 | 137.81295 | 10615 ft | 332 kts | 107° |
| 2025-09-09 11:12 | -34.79407 | 137.89266 | 9491 ft | 325 kts | 107° |
| 2025-09-09 11:12 | -34.80689 | 137.94495 | 8810 ft | 320 kts | 107° |
| 2025-09-09 11:13 | -34.81322 | 137.97080 | 8472 ft | 318 kts | 107° |
| 2025-09-09 11:13 | -34.82576 | 138.02207 | 7797 ft | 314 kts | 107° |
| 2025-09-09 11:14 | -34.83813 | 138.07276 | 7146 ft | 310 kts | 107° |
| 2025-09-09 11:14 | -34.85053 | 138.12266 | 6518 ft | 306 kts | 110° |
| 2025-09-09 11:15 | -34.87587 | 138.16201 | 5848 ft | 286 kts | 141° |
| 2025-09-09 11:15 | -34.90430 | 138.19291 | 5200 ft | 261 kts | 141° |
| 2025-09-09 11:16 | -34.94189 | 138.23395 | 4459 ft | 226 kts | 141° |
| 2025-09-09 11:16 | -34.96456 | 138.25871 | 4085 ft | 211 kts | 142° |
| 2025-09-09 11:17 | -34.98578 | 138.28192 | 3786 ft | 202 kts | 142° |
| 2025-09-09 11:17 | -34.99619 | 138.29334 | 3655 ft | 200 kts | 142° |
| 2025-09-09 11:18 | -35.01680 | 138.31600 | 3404 ft | 198 kts | 141° |
| 2025-09-09 11:18 | -35.03714 | 138.33840 | 3157 ft | 196 kts | 142° |
| 2025-09-09 11:19 | -35.05394 | 138.36398 | 3007 ft | 202 kts | 103° |
| 2025-09-09 11:19 | -35.04418 | 138.39431 | 2648 ft | 196 kts | 45° |
| 2025-09-09 11:20 | -35.02626 | 138.41785 | 2068 ft | 183 kts | 52° |
| 2025-09-09 11:20 | -35.00353 | 138.45137 | 1376 ft | 157 kts | 50° |
| 2025-09-09 11:21 | -34.99680 | 138.46120 | 1189 ft | 146 kts | 51° |
| 2025-09-09 11:21 | -34.98438 | 138.47932 | 811 ft | 135 kts | 52° |
| 2025-09-09 11:22 | -34.97260 | 138.49656 | 473 ft | 133 kts | 51° |
| 2025-09-09 11:22 | -34.96088 | 138.51396 | 153 ft | 133 kts | 48° |
| 2025-09-09 11:22 | -34.95504 | 138.52223 | 31 ft | 130 kts | 50° |
| 2025-09-09 11:23 | -34.94741 | 138.53334 | 29 ft | 22 kts | 50° |
| 2025-09-09 11:24 | -34.94501 | 138.53687 | 29 ft | 29 kts | 52° |
| 2025-09-09 11:24 | -34.94136 | 138.53967 | 31 ft | 20 kts | 320° |
| 2025-09-09 11:25 | -34.94034 | 138.53887 | 31 ft | 10 kts | 340° |
| 2025-09-09 11:25 | -34.93964 | 138.53854 | 33 ft | 4 kts | 324° |
| 2025-09-09 11:26 | -34.93939 | 138.53831 | 33 ft | 2 kts | 322° |
| 2025-09-09 11:26 | -34.93937 | 138.53829 | 33 ft | 0 kts | 322° |